createdAt,value
2022-09-06T00:01:33.279Z,48.73
2022-09-06T00:03:58.926Z,48.75
2022-09-06T00:06:24.503Z,48.92
2022-09-06T00:08:50.065Z,48.83
2022-09-06T00:11:16.265Z,48.92
2022-09-06T00:13:41.979Z,48.74
2022-09-06T00:16:08.279Z,48.86
2022-09-06T00:18:33.848Z,48.77
2022-09-06T00:20:59.385Z,48.82
2022-09-06T00:23:24.934Z,48.76
2022-09-06T00:25:50.478Z,48.78
2022-09-06T00:28:16.026Z,48.92
2022-09-06T00:30:41.589Z,48.98
2022-09-06T00:33:07.185Z,48.80
2022-09-06T00:35:32.805Z,48.91
2022-09-06T00:37:58.861Z,48.96
2022-09-06T00:40:24.498Z,48.82
2022-09-06T00:42:50.861Z,48.90
2022-09-06T00:45:16.397Z,48.96
2022-09-06T00:47:41.936Z,48.94
2022-09-06T00:50:07.805Z,48.84
2022-09-06T00:52:33.344Z,48.86
2022-09-06T00:54:58.893Z,48.97
2022-09-06T00:57:26.312Z,48.97
2022-09-06T00:59:52.156Z,48.82
2022-09-06T01:02:18.665Z,48.91
2022-09-06T01:04:44.332Z,48.81
2022-09-06T01:07:27.109Z,49.06
2022-09-06T01:09:59.635Z,48.99
2022-09-06T01:12:36.245Z,48.71
2022-09-06T01:15:05.230Z,48.96
2022-09-06T01:17:50.686Z,48.98
2022-09-06T01:20:28.215Z,48.92
2022-09-06T01:23:13.656Z,48.99
2022-09-06T01:28:45.468Z,48.95
2022-09-06T01:31:30.956Z,48.99
2022-09-06T01:34:16.417Z,48.86
2022-09-06T01:37:06.196Z,48.90
2022-09-06T01:39:29.625Z,48.95
2022-09-06T01:41:55.501Z,48.79
2022-09-06T01:44:21.037Z,48.83
2022-09-06T01:46:55.830Z,48.82
2022-09-06T01:49:33.319Z,48.84
2022-09-06T01:52:16.975Z,49.02
2022-09-06T01:55:02.447Z,48.86
2022-09-06T01:57:31.995Z,48.86
2022-09-06T02:00:02.663Z,49.00
2022-09-06T02:02:39.572Z,48.65
2022-09-06T02:05:06.097Z,48.99
2022-09-06T02:07:31.943Z,48.91
2022-09-06T02:09:59.063Z,49.07
2022-09-06T02:12:24.728Z,48.98
2022-09-06T02:14:52.233Z,49.02
2022-09-06T02:17:19.716Z,48.96
2022-09-06T02:19:46.841Z,49.01
2022-09-06T02:22:13.636Z,48.96
2022-09-06T02:24:39.896Z,49.02
2022-09-06T02:27:05.913Z,49.02
2022-09-06T02:29:31.644Z,49.03
2022-09-06T02:31:59.472Z,48.83
2022-09-06T02:34:25.016Z,48.94
2022-09-06T02:36:50.572Z,49.02
2022-09-06T02:39:16.107Z,48.92
2022-09-06T02:41:41.664Z,48.85
2022-09-06T02:44:07.548Z,48.85
2022-09-06T02:46:33.174Z,48.94
2022-09-06T02:48:58.779Z,49.03
2022-09-06T02:51:24.312Z,49.00
2022-09-06T02:53:49.863Z,48.98
2022-09-06T02:56:15.400Z,49.00
2022-09-06T02:58:40.964Z,48.99
2022-09-06T03:01:06.541Z,49.00
2022-09-06T03:03:32.116Z,49.08
2022-09-06T03:05:57.654Z,48.88
2022-09-06T03:08:25.601Z,48.99
2022-09-06T03:10:53.159Z,49.03
2022-09-06T03:13:21.524Z,48.99
2022-09-06T03:15:55.479Z,49.01
2022-09-06T03:18:21.339Z,48.91
2022-09-06T03:20:48.758Z,49.05
2022-09-06T03:23:14.307Z,48.87
2022-09-06T03:25:39.970Z,49.00
2022-09-06T03:28:05.515Z,48.88
2022-09-06T03:30:31.102Z,49.03
2022-09-06T03:33:01.982Z,49.00
2022-09-06T03:35:28.408Z,48.93
2022-09-06T03:37:53.959Z,48.97
2022-09-06T03:40:19.615Z,49.02
2022-09-06T03:42:45.711Z,49.06
2022-09-06T03:45:11.432Z,49.03
2022-09-06T03:47:36.974Z,48.98
2022-09-06T03:50:02.811Z,49.02
2022-09-06T03:52:28.359Z,48.91
2022-09-06T03:54:53.894Z,49.05
2022-09-06T03:57:19.444Z,49.01
2022-09-06T03:59:44.994Z,49.01
2022-09-06T04:02:10.575Z,48.97
2022-09-06T04:04:36.136Z,48.92
2022-09-06T04:07:01.691Z,48.89
2022-09-06T04:09:27.228Z,48.94
2022-09-06T04:11:52.773Z,48.90
2022-09-06T04:14:18.320Z,49.00
2022-09-06T04:16:43.993Z,48.98
2022-09-06T04:19:09.576Z,48.87
2022-09-06T04:21:35.116Z,48.85
2022-09-06T04:24:00.741Z,48.87
2022-09-06T04:26:26.275Z,49.02
2022-09-06T04:28:51.814Z,49.05
2022-09-06T04:31:17.351Z,49.01
2022-09-06T04:33:42.901Z,48.94
2022-09-06T04:36:08.973Z,49.05
2022-09-06T04:38:35.533Z,48.95
2022-09-06T04:41:01.071Z,49.04
2022-09-06T04:43:26.615Z,48.96
2022-09-06T04:45:52.177Z,48.87
2022-09-06T04:48:17.772Z,49.15
2022-09-06T04:50:43.301Z,49.04
2022-09-06T04:53:10.092Z,48.89
2022-09-06T04:55:36.120Z,48.75
2022-09-06T04:58:02.636Z,48.76
2022-09-06T05:00:28.404Z,48.94
2022-09-06T05:02:53.950Z,48.94
2022-09-06T05:05:19.516Z,48.43
2022-09-06T05:07:45.063Z,48.59
2022-09-06T05:10:10.608Z,48.80
2022-09-06T05:12:37.378Z,48.83
2022-09-06T05:15:04.459Z,48.78
2022-09-06T05:17:30.008Z,48.94
2022-09-06T05:19:55.545Z,48.80
2022-09-06T05:22:21.081Z,48.81
2022-09-06T05:24:46.627Z,48.55
2022-09-06T05:27:13.369Z,49.14
2022-09-06T05:29:38.925Z,48.99
2022-09-06T05:32:04.493Z,48.75
2022-09-06T05:34:30.089Z,49.26
2022-09-06T05:36:55.629Z,49.03
2022-09-06T05:39:21.173Z,49.02
2022-09-06T05:41:46.876Z,49.06
2022-09-06T05:44:13.286Z,49.06
2022-09-06T05:46:45.818Z,49.20
2022-09-06T05:49:11.968Z,49.29
2022-09-06T05:51:37.674Z,49.37
2022-09-06T05:54:03.211Z,49.35
2022-09-06T05:56:28.934Z,49.46
2022-09-06T05:58:54.485Z,49.56
2022-09-06T06:01:20.967Z,49.82
2022-09-06T06:03:50.201Z,49.74
2022-09-06T06:06:15.745Z,49.60
2022-09-06T06:08:41.295Z,49.76
2022-09-06T06:11:06.835Z,49.77
2022-09-06T06:13:38.666Z,51.00
2022-09-06T06:16:05.312Z,53.70
2022-09-06T06:18:30.894Z,54.02
2022-09-06T06:21:16.311Z,54.69
2022-09-06T06:23:42.554Z,54.88
2022-09-06T06:26:08.383Z,54.18
2022-09-06T06:28:35.121Z,53.35
2022-09-06T06:31:00.932Z,53.08
2022-09-06T06:33:27.047Z,52.96
2022-09-06T06:36:00.797Z,52.70
2022-09-06T06:38:34.019Z,52.50
2022-09-06T06:41:04.398Z,52.50
2022-09-06T06:43:35.568Z,52.32
2022-09-06T06:46:02.502Z,52.14
2022-09-06T06:48:28.281Z,52.22
2022-09-06T06:50:53.938Z,52.36
2022-09-06T06:53:19.492Z,52.47
2022-09-06T06:55:46.281Z,52.37
2022-09-06T06:58:11.827Z,53.93
2022-09-06T07:00:37.412Z,52.77
2022-09-06T07:03:03.911Z,52.82
2022-09-06T07:08:14.970Z,52.43
2022-09-06T07:10:41.115Z,52.35
2022-09-06T07:13:06.666Z,52.37
2022-09-06T07:15:32.210Z,52.00
2022-09-06T07:17:57.760Z,52.19
2022-09-06T07:20:25.391Z,52.26
2022-09-06T07:25:45.030Z,52.18
2022-09-06T07:28:10.947Z,52.22
2022-09-06T07:30:36.543Z,52.31
2022-09-06T07:33:04.468Z,52.26
2022-09-06T07:35:30.207Z,52.08
2022-09-06T07:37:56.279Z,52.07
2022-09-06T07:40:22.427Z,52.10
2022-09-06T07:42:47.977Z,52.38
2022-09-06T07:45:13.522Z,52.33
2022-09-06T07:53:14.103Z,51.77
2022-09-06T07:55:43.182Z,51.96
2022-09-06T07:58:08.745Z,51.93
2022-09-06T08:00:34.417Z,51.96
2022-09-06T08:03:00.037Z,51.67
2022-09-06T08:10:56.949Z,51.84
2022-09-06T08:13:22.495Z,51.37
2022-09-06T08:15:48.049Z,51.01
2022-09-06T08:18:13.603Z,50.93
2022-09-06T08:20:39.148Z,51.80
2022-09-06T08:23:08.726Z,51.08
2022-09-06T08:25:34.264Z,51.38
2022-09-06T08:27:59.807Z,51.58
2022-09-06T08:30:26.802Z,51.58
2022-09-06T08:32:52.350Z,51.89
2022-09-06T08:35:17.903Z,51.50
2022-09-06T08:37:43.448Z,51.20
2022-09-06T08:40:09.482Z,51.31
2022-09-06T08:42:37.274Z,51.09
2022-09-06T08:45:08.149Z,50.88
2022-09-06T08:47:33.711Z,50.83
2022-09-06T08:50:00.437Z,50.69
2022-09-06T08:53:06.261Z,51.26
2022-09-06T08:55:40.827Z,51.33
2022-09-06T08:58:10.342Z,50.76
2022-09-06T09:00:36.127Z,50.82
2022-09-06T09:03:04.682Z,50.93
2022-09-06T09:05:30.941Z,51.01
2022-09-06T09:08:13.448Z,51.10
2022-09-06T09:10:40.959Z,50.98
2022-09-06T09:13:07.018Z,50.93
2022-09-06T09:15:35.064Z,50.77
2022-09-06T09:18:02.654Z,50.92
2022-09-06T09:20:28.187Z,50.84
2022-09-06T09:22:53.734Z,50.61
2022-09-06T09:25:21.056Z,50.71
2022-09-06T09:27:46.612Z,50.73
2022-09-06T09:32:57.767Z,50.64
2022-09-06T09:35:30.057Z,50.60
2022-09-06T09:38:09.461Z,50.44
2022-09-06T09:40:40.779Z,50.50
2022-09-06T09:43:10.457Z,50.52
2022-09-06T09:45:35.990Z,50.46
2022-09-06T09:48:17.959Z,50.56
2022-09-06T09:50:43.541Z,50.46
2022-09-06T09:53:09.623Z,50.42
2022-09-06T09:55:35.135Z,50.52
2022-09-06T09:58:00.679Z,50.82
2022-09-06T10:00:42.438Z,50.47
2022-09-06T10:03:12.027Z,50.32
2022-09-06T10:05:37.598Z,50.33
2022-09-06T10:08:03.160Z,50.46
2022-09-06T10:10:45.968Z,50.32
2022-09-06T10:13:21.122Z,50.38
2022-09-06T10:15:47.037Z,50.46
2022-09-06T10:21:18.084Z,50.34
2022-09-06T10:26:50.927Z,50.69
2022-09-06T10:29:36.339Z,51.59
2022-09-06T10:32:21.766Z,50.74
2022-09-06T10:35:05.449Z,50.47
2022-09-06T10:37:50.894Z,50.60
2022-09-06T10:40:20.751Z,50.65
2022-09-06T10:42:47.492Z,50.33
2022-09-06T10:45:19.934Z,50.40
2022-09-06T10:48:03.860Z,50.32
2022-09-06T10:50:37.995Z,50.34
2022-09-06T10:53:12.958Z,50.44
2022-09-06T10:55:39.331Z,50.47
2022-09-06T10:58:20.730Z,50.28
2022-09-06T11:00:46.884Z,50.40
2022-09-06T11:06:06.612Z,50.29
2022-09-06T11:08:53.434Z,50.33
2022-09-06T11:11:38.742Z,50.34
2022-09-06T11:14:05.837Z,50.40
2022-09-06T11:16:32.461Z,50.30
2022-09-06T11:19:02.346Z,50.30
2022-09-06T11:21:33.283Z,50.30
2022-09-06T11:24:02.449Z,50.39
2022-09-06T11:26:47.874Z,50.40
2022-09-06T11:29:19.287Z,50.27
2022-09-06T11:34:40.290Z,50.25
2022-09-06T11:37:06.385Z,50.26
2022-09-06T11:42:40.068Z,50.27
2022-09-06T11:47:44.588Z,50.35
2022-09-06T11:50:27.095Z,50.27
2022-09-06T11:53:11.955Z,50.18
2022-09-06T11:55:39.471Z,50.18
2022-09-06T11:58:08.467Z,50.18
2022-09-06T12:00:34.017Z,50.14
2022-09-06T12:06:04.958Z,50.24
2022-09-06T12:08:31.255Z,50.17
2022-09-06T12:10:59.689Z,50.20
2022-09-06T12:16:10.307Z,50.28
2022-09-06T12:18:52.287Z,50.25
2022-09-06T12:21:37.754Z,50.27
2022-09-06T12:24:03.904Z,50.13
2022-09-06T12:26:55.332Z,50.18
2022-09-06T12:29:22.836Z,50.11
2022-09-06T12:31:52.099Z,50.21
2022-09-06T12:34:20.599Z,50.16
2022-09-06T12:36:47.457Z,50.33
2022-09-06T12:39:12.991Z,50.13
2022-09-06T12:41:43.265Z,50.17
2022-09-06T12:44:09.571Z,50.11
2022-09-06T12:46:35.152Z,50.25
2022-09-06T12:49:06.164Z,50.17
2022-09-06T12:51:31.803Z,50.32
2022-09-06T12:53:59.454Z,50.25
2022-09-06T12:56:26.024Z,50.26
2022-09-06T12:58:51.714Z,50.13
2022-09-06T13:01:25.807Z,50.13
2022-09-06T13:03:55.555Z,50.13
2022-09-06T13:06:26.579Z,50.14
2022-09-06T13:08:52.914Z,50.12
2022-09-06T13:11:28.478Z,50.21
2022-09-06T13:13:54.090Z,50.24
2022-09-06T13:16:20.613Z,50.10
2022-09-06T13:18:46.204Z,50.17
2022-09-06T13:21:13.872Z,50.14
2022-09-06T13:23:41.696Z,50.20
2022-09-06T13:26:07.244Z,50.08
2022-09-06T13:28:33.197Z,50.10
2022-09-06T13:31:03.467Z,50.10
2022-09-06T13:33:29.055Z,50.11
2022-09-06T13:36:14.483Z,50.09
2022-09-06T13:38:40.665Z,50.28
2022-09-06T13:41:15.757Z,50.19
2022-09-06T13:43:42.698Z,50.22
2022-09-06T13:46:09.511Z,50.16
2022-09-06T13:48:35.269Z,50.14
2022-09-06T13:51:02.634Z,50.21
2022-09-06T13:53:28.170Z,50.15
2022-09-06T13:55:53.727Z,50.21
2022-09-06T13:58:19.270Z,50.16
2022-09-06T14:00:46.065Z,50.23
2022-09-06T14:03:12.993Z,50.11
2022-09-06T14:05:38.878Z,50.14
2022-09-06T14:08:04.421Z,50.24
2022-09-06T14:10:29.981Z,50.18
2022-09-06T14:12:55.516Z,50.10
2022-09-06T14:15:21.064Z,50.11
2022-09-06T14:17:46.620Z,50.13
2022-09-06T14:20:12.166Z,50.14
2022-09-06T14:22:37.701Z,50.13
2022-09-06T14:25:03.533Z,50.11
2022-09-06T14:27:29.211Z,50.15
2022-09-06T14:29:54.761Z,49.92
2022-09-06T14:32:22.562Z,50.11
2022-09-06T14:34:48.455Z,50.14
2022-09-06T14:37:13.996Z,50.06
2022-09-06T14:39:39.581Z,50.22
2022-09-06T14:42:05.163Z,50.39
2022-09-06T14:44:30.715Z,50.13
2022-09-06T14:46:56.281Z,50.07
2022-09-06T14:49:21.863Z,50.22
2022-09-06T14:51:47.409Z,50.23
2022-09-06T14:54:13.223Z,50.10
2022-09-06T14:56:39.653Z,50.34
2022-09-06T14:59:05.402Z,50.10
2022-09-06T15:01:37.334Z,56.31
2022-09-06T15:04:04.947Z,52.46
2022-09-06T15:06:32.268Z,51.70
2022-09-06T15:08:59.485Z,51.49
2022-09-06T15:11:29.311Z,51.35
2022-09-06T15:13:55.091Z,51.18
2022-09-06T15:16:20.632Z,51.17
2022-09-06T15:18:46.177Z,51.16
2022-09-06T15:21:12.436Z,51.09
2022-09-06T15:23:38.705Z,51.17
2022-09-06T15:26:05.539Z,51.01
2022-09-06T15:28:33.654Z,51.08
2022-09-06T15:30:59.236Z,51.18
2022-09-06T15:33:28.060Z,51.03
2022-09-06T15:35:54.762Z,51.16
2022-09-06T15:38:20.311Z,51.11
2022-09-06T15:40:45.850Z,51.08
2022-09-06T15:43:11.403Z,51.10
2022-09-06T15:45:46.312Z,50.99
2022-09-06T15:48:11.997Z,51.16
2022-09-06T15:50:50.843Z,51.23
2022-09-06T15:53:17.456Z,51.18
2022-09-06T15:55:58.147Z,51.24
2022-09-06T15:58:24.353Z,51.31
2022-09-06T16:01:09.885Z,51.75
2022-09-06T16:03:36.585Z,51.10
2022-09-06T16:08:51.705Z,51.64
2022-09-06T16:11:17.664Z,51.50
2022-09-06T16:13:43.325Z,52.01
2022-09-06T16:16:09.656Z,51.29
2022-09-06T16:18:35.825Z,51.54
2022-09-06T16:21:06.806Z,51.58
2022-09-06T16:23:32.341Z,51.65
2022-09-06T16:25:57.892Z,51.44
2022-09-06T16:28:23.644Z,51.57
2022-09-06T16:30:49.272Z,51.55
2022-09-06T16:33:14.829Z,51.50
2022-09-06T16:35:40.683Z,51.30
2022-09-06T16:38:09.085Z,51.07
2022-09-06T16:40:35.119Z,51.15
2022-09-06T16:43:00.922Z,51.22
2022-09-06T16:45:26.679Z,51.30
2022-09-06T16:47:52.219Z,51.37
2022-09-06T16:50:17.754Z,51.39
2022-09-06T16:52:43.303Z,51.26
2022-09-06T16:55:08.848Z,51.07
2022-09-06T16:57:34.397Z,51.04
2022-09-06T16:59:59.934Z,51.25
2022-09-06T17:02:25.548Z,51.04
2022-09-06T17:04:52.986Z,51.16
2022-09-06T17:07:18.616Z,51.04
2022-09-06T17:09:44.153Z,51.16
2022-09-06T17:12:09.702Z,51.06
2022-09-06T17:14:36.129Z,51.13
2022-09-06T17:17:04.852Z,51.17
2022-09-06T17:19:33.153Z,51.03
2022-09-06T17:21:58.697Z,51.08
2022-09-06T17:24:25.455Z,51.02
2022-09-06T17:26:51.003Z,51.10
2022-09-06T17:29:16.603Z,51.07
2022-09-06T17:31:42.415Z,51.16
2022-09-06T17:34:07.948Z,51.17
2022-09-06T17:36:33.608Z,51.02
2022-09-06T17:39:00.002Z,50.99
2022-09-06T17:41:27.077Z,51.09
2022-09-06T17:43:53.720Z,50.97
2022-09-06T17:46:20.247Z,51.00
2022-09-06T17:48:45.834Z,50.99
2022-09-06T17:51:11.382Z,51.02
2022-09-06T17:53:37.147Z,50.97
2022-09-06T17:56:04.156Z,51.11
2022-09-06T17:58:29.808Z,51.05
2022-09-06T18:00:55.874Z,50.99
2022-09-06T18:03:21.459Z,50.94
2022-09-06T18:05:47.011Z,50.96
2022-09-06T18:08:12.556Z,50.95
2022-09-06T18:10:38.099Z,50.96
2022-09-06T18:13:04.179Z,50.98
2022-09-06T18:15:29.847Z,50.96
2022-09-06T18:17:55.394Z,51.02
2022-09-06T18:20:22.128Z,50.97
2022-09-06T18:22:47.669Z,51.09
2022-09-06T18:25:13.218Z,51.06
2022-09-06T18:27:38.758Z,50.95
2022-09-06T18:30:04.400Z,51.13
2022-09-06T18:32:30.160Z,50.93
2022-09-06T18:34:55.694Z,50.91
2022-09-06T18:37:21.258Z,50.89
2022-09-06T18:39:46.854Z,51.03
2022-09-06T18:42:12.474Z,51.04
2022-09-06T18:44:38.142Z,50.96
2022-09-06T18:47:05.144Z,50.97
2022-09-06T18:49:31.587Z,51.04
2022-09-06T18:51:57.189Z,51.07
2022-09-06T18:54:22.729Z,50.91
2022-09-06T18:56:49.167Z,51.05
2022-09-06T18:59:14.839Z,51.05
2022-09-06T19:01:41.824Z,51.03
2022-09-06T19:04:08.693Z,51.02
2022-09-06T19:06:34.664Z,50.97
2022-09-06T19:09:00.648Z,50.96
2022-09-06T19:11:26.192Z,50.95
2022-09-06T19:13:52.348Z,50.99
2022-09-06T19:16:18.048Z,50.97
2022-09-06T19:18:43.609Z,51.05
2022-09-06T19:21:10.230Z,50.88
2022-09-06T19:23:37.659Z,51.01
2022-09-06T19:26:04.176Z,50.93
2022-09-06T19:28:29.808Z,50.88
2022-09-06T19:30:55.600Z,50.91
2022-09-06T19:33:21.287Z,50.90
2022-09-06T19:36:09.951Z,50.97
2022-09-06T19:38:52.739Z,50.97
2022-09-06T19:41:19.910Z,50.99
2022-09-06T19:43:48.291Z,50.98
2022-09-06T19:46:13.901Z,50.96
2022-09-06T19:48:43.206Z,50.92
2022-09-06T19:51:09.015Z,50.90
2022-09-06T19:53:35.079Z,50.88
2022-09-06T19:56:07.588Z,51.07
2022-09-06T19:58:33.127Z,50.97
2022-09-06T20:00:58.718Z,51.04
2022-09-06T20:03:24.271Z,50.93
2022-09-06T20:05:55.285Z,50.90
2022-09-06T20:08:20.819Z,50.92
2022-09-06T20:10:54.119Z,51.02
2022-09-06T20:13:19.660Z,51.04
2022-09-06T20:15:45.203Z,51.08
2022-09-06T20:18:10.745Z,50.97
2022-09-06T20:20:36.289Z,50.98
2022-09-06T20:23:02.581Z,50.94
2022-09-06T20:25:28.129Z,50.93
2022-09-06T20:27:53.718Z,51.07
2022-09-06T20:30:19.557Z,50.94
2022-09-06T20:32:45.101Z,50.96
2022-09-06T20:35:10.636Z,51.00
2022-09-06T20:37:37.922Z,50.92
2022-09-06T20:40:05.205Z,50.94
2022-09-06T20:42:30.780Z,50.91
2022-09-06T20:44:56.436Z,51.01
2022-09-06T20:47:21.978Z,50.84
2022-09-06T20:49:48.032Z,51.04
2022-09-06T20:52:13.577Z,50.97
2022-09-06T20:54:40.215Z,50.95
2022-09-06T20:57:05.919Z,50.96
2022-09-06T20:59:31.471Z,51.04
2022-09-06T21:01:57.700Z,50.95
2022-09-06T21:04:25.105Z,50.96
2022-09-06T21:06:50.652Z,51.00
2022-09-06T21:09:16.187Z,50.94
2022-09-06T21:11:42.403Z,51.06
2022-09-06T21:14:08.654Z,51.02
2022-09-06T21:16:34.382Z,50.99
2022-09-06T21:19:00.895Z,51.04
2022-09-06T21:21:27.091Z,50.98
2022-09-06T21:23:52.627Z,50.94
2022-09-06T21:26:18.174Z,51.07
2022-09-06T21:28:44.518Z,51.01
2022-09-06T21:31:12.302Z,51.04
2022-09-06T21:33:39.813Z,50.94
2022-09-06T21:36:06.305Z,50.92
2022-09-06T21:38:33.259Z,51.03
2022-09-06T21:40:58.805Z,50.92
2022-09-06T21:43:24.450Z,50.97
2022-09-06T21:45:49.993Z,50.94
2022-09-06T21:48:17.506Z,50.99
2022-09-06T21:50:44.886Z,50.98
2022-09-06T21:53:10.424Z,50.92
2022-09-06T21:55:35.972Z,51.10
2022-09-06T21:58:01.521Z,51.03
2022-09-06T22:00:27.065Z,50.92
2022-09-06T22:02:52.600Z,51.08
2022-09-06T22:05:18.144Z,51.07
2022-09-06T22:07:43.680Z,50.92
2022-09-06T22:10:09.228Z,50.91
2022-09-06T22:12:34.769Z,50.91
2022-09-06T22:15:00.311Z,50.94
2022-09-06T22:17:25.860Z,50.91
2022-09-06T22:19:51.400Z,50.91
2022-09-06T22:22:16.941Z,50.93
2022-09-06T22:24:42.495Z,50.97
2022-09-06T22:27:08.247Z,50.94
2022-09-06T22:29:33.782Z,50.88
2022-09-06T22:31:59.329Z,50.93
2022-09-06T22:34:24.870Z,50.94
2022-09-06T22:36:50.410Z,50.95
2022-09-06T22:39:15.942Z,50.94
2022-09-06T22:41:41.486Z,50.98
2022-09-06T22:44:07.020Z,50.87
2022-09-06T22:46:32.598Z,50.94
2022-09-06T22:48:58.309Z,51.02
2022-09-06T22:51:23.845Z,50.89
2022-09-06T22:53:49.391Z,50.95
2022-09-06T22:56:15.016Z,51.01
2022-09-06T22:58:40.559Z,51.06
2022-09-06T23:01:07.272Z,50.92
2022-09-06T23:03:32.922Z,50.98
2022-09-06T23:05:59.672Z,50.98
2022-09-06T23:08:25.232Z,50.88
2022-09-06T23:10:50.776Z,50.92
2022-09-06T23:13:16.443Z,51.09
2022-09-06T23:15:45.158Z,50.91
2022-09-06T23:18:10.720Z,50.84
2022-09-06T23:20:36.456Z,50.98
2022-09-06T23:23:02.209Z,50.95
2022-09-06T23:25:27.768Z,50.93
2022-09-06T23:27:53.345Z,50.93
2022-09-06T23:30:18.951Z,51.04
2022-09-06T23:32:44.488Z,50.95
2022-09-06T23:35:10.033Z,50.97
2022-09-06T23:37:35.885Z,51.06
2022-09-06T23:40:04.698Z,50.93
2022-09-06T23:42:32.545Z,51.06
2022-09-06T23:44:58.233Z,50.94
2022-09-06T23:47:24.033Z,50.96
2022-09-06T23:49:50.763Z,50.97
2022-09-06T23:52:16.597Z,50.98
2022-09-06T23:54:42.141Z,51.05
2022-09-06T23:57:07.687Z,50.96
2022-09-06T23:59:34.027Z,51.02
